Parauapebas, Brazil
Current Conditions -  °F | °C
As of 2:00 PM on Sunday 23 Nov 2014 (Local Time) from SBCJ Reporting Station
Haze Haze  
Wind Chill: 75°   Ceiling: 500
Heat Index: 75°   Visibility: 3mi
Dew Point: 72°   Wind: 5mph
Humidity: 89%   Direction: 50°NE
Pressure: 29.94"   Gusts: NA
Location:  6.07°S, 49.9°W
Report Text: SBCJ 231700Z 05004KT 5000 BR BKN005 24/22 Q1014
Loading
Personal Weather Stations






























Interactive Weather Map New forecast layout! Learn more

10-Day Weather Forecast

Advertisements
Track Severe Weather on mobile